sensor_id;sensor_type;location;lat;lon;timestamp;P1;durP1;ratioP1;P2;durP2;ratioP2
65581;SDS011;52231;40.090;18.348;2023-04-26T00:00:00;4.88;;;1.45;;
65581;SDS011;52231;40.090;18.348;2023-04-26T00:02:31;5.75;;;1.65;;
65581;SDS011;52231;40.090;18.348;2023-04-26T00:05:00;10.05;;;1.60;;
65581;SDS011;52231;40.090;18.348;2023-04-26T00:07:31;5.15;;;1.27;;
65581;SDS011;52231;40.090;18.348;2023-04-26T00:12:28;10.05;;;1.52;;
65581;SDS011;52231;40.090;18.348;2023-04-26T00:14:56;6.18;;;1.58;;
65581;SDS011;52231;40.090;18.348;2023-04-26T00:17:24;8.05;;;1.50;;
65581;SDS011;52231;40.090;18.348;2023-04-26T00:19:52;10.68;;;2.00;;
65581;SDS011;52231;40.090;18.348;2023-04-26T00:22:21;7.80;;;1.80;;
65581;SDS011;52231;40.090;18.348;2023-04-26T00:24:49;3.70;;;1.52;;
65581;SDS011;52231;40.090;18.348;2023-04-26T00:29:46;5.88;;;1.40;;
65581;SDS011;52231;40.090;18.348;2023-04-26T00:32:14;3.13;;;1.40;;
65581;SDS011;52231;40.090;18.348;2023-04-26T00:34:42;7.15;;;1.70;;
65581;SDS011;52231;40.090;18.348;2023-04-26T00:37:10;7.82;;;1.77;;
65581;SDS011;52231;40.090;18.348;2023-04-26T00:39:39;6.75;;;1.65;;
65581;SDS011;52231;40.090;18.348;2023-04-26T00:42:07;9.65;;;1.75;;
65581;SDS011;52231;40.090;18.348;2023-04-26T00:44:36;4.68;;;1.50;;
65581;SDS011;52231;40.090;18.348;2023-04-26T00:47:06;4.70;;;1.80;;
65581;SDS011;52231;40.090;18.348;2023-04-26T00:49:35;10.40;;;1.58;;
65581;SDS011;52231;40.090;18.348;2023-04-26T00:52:03;4.70;;;1.20;;
65581;SDS011;52231;40.090;18.348;2023-04-26T00:54:32;5.20;;;1.33;;
65581;SDS011;52231;40.090;18.348;2023-04-26T00:57:00;3.22;;;1.48;;
65581;SDS011;52231;40.090;18.348;2023-04-26T00:59:29;6.18;;;1.42;;
65581;SDS011;52231;40.090;18.348;2023-04-26T01:01:57;4.75;;;1.42;;
65581;SDS011;52231;40.090;18.348;2023-04-26T01:06:56;8.25;;;1.80;;
65581;SDS011;52231;40.090;18.348;2023-04-26T01:09:25;6.07;;;1.80;;
65581;SDS011;52231;40.090;18.348;2023-04-26T01:12:01;6.68;;;1.63;;
65581;SDS011;52231;40.090;18.348;2023-04-26T01:14:30;5.13;;;1.60;;
65581;SDS011;52231;40.090;18.348;2023-04-26T01:17:00;8.43;;;1.90;;
65581;SDS011;52231;40.090;18.348;2023-04-26T01:19:29;10.05;;;1.70;;
65581;SDS011;52231;40.090;18.348;2023-04-26T01:21:58;6.90;;;1.85;;
65581;SDS011;52231;40.090;18.348;2023-04-26T01:24:26;4.53;;;1.73;;
65581;SDS011;52231;40.090;18.348;2023-04-26T01:29:23;7.60;;;1.92;;
65581;SDS011;52231;40.090;18.348;2023-04-26T01:31:53;6.88;;;1.80;;
65581;SDS011;52231;40.090;18.348;2023-04-26T01:34:22;5.90;;;2.08;;
65581;SDS011;52231;40.090;18.348;2023-04-26T01:36:50;5.97;;;1.77;;
65581;SDS011;52231;40.090;18.348;2023-04-26T01:39:19;8.05;;;1.95;;
65581;SDS011;52231;40.090;18.348;2023-04-26T01:41:49;9.48;;;2.20;;
65581;SDS011;52231;40.090;18.348;2023-04-26T01:44:17;6.32;;;1.70;;
65581;SDS011;52231;40.090;18.348;2023-04-26T01:46:45;8.10;;;1.90;;
65581;SDS011;52231;40.090;18.348;2023-04-26T01:49:14;7.35;;;2.00;;
65581;SDS011;52231;40.090;18.348;2023-04-26T01:51:42;8.98;;;2.03;;
65581;SDS011;52231;40.090;18.348;2023-04-26T01:54:10;4.10;;;1.50;;
65581;SDS011;52231;40.090;18.348;2023-04-26T01:56:38;4.55;;;1.80;;
65581;SDS011;52231;40.090;18.348;2023-04-26T01:59:06;6.35;;;1.83;;
65581;SDS011;52231;40.090;18.348;2023-04-26T02:01:34;5.43;;;1.80;;
65581;SDS011;52231;40.090;18.348;2023-04-26T02:04:02;5.80;;;1.67;;
65581;SDS011;52231;40.090;18.348;2023-04-26T02:06:32;10.73;;;2.08;;
65581;SDS011;52231;40.090;18.348;2023-04-26T02:09:00;8.60;;;1.67;;
65581;SDS011;52231;40.090;18.348;2023-04-26T02:11:29;7.10;;;1.77;;
65581;SDS011;52231;40.090;18.348;2023-04-26T02:16:26;4.55;;;1.40;;
65581;SDS011;52231;40.090;18.348;2023-04-26T02:18:54;5.88;;;1.65;;
65581;SDS011;52231;40.090;18.348;2023-04-26T02:21:22;5.93;;;1.60;;
65581;SDS011;52231;40.090;18.348;2023-04-26T02:23:51;7.70;;;1.73;;
65581;SDS011;52231;40.090;18.348;2023-04-26T02:26:19;4.95;;;1.60;;
65581;SDS011;52231;40.090;18.348;2023-04-26T02:28:47;6.25;;;1.70;;
65581;SDS011;52231;40.090;18.348;2023-04-26T02:31:15;10.13;;;1.75;;
65581;SDS011;52231;40.090;18.348;2023-04-26T02:33:44;8.18;;;1.80;;
65581;SDS011;52231;40.090;18.348;2023-04-26T02:36:12;5.80;;;1.65;;
65581;SDS011;52231;40.090;18.348;2023-04-26T02:38:41;6.28;;;1.40;;
65581;SDS011;52231;40.090;18.348;2023-04-26T02:41:09;4.30;;;1.35;;
65581;SDS011;52231;40.090;18.348;2023-04-26T02:43:38;3.17;;;1.40;;
65581;SDS011;52231;40.090;18.348;2023-04-26T02:46:06;7.95;;;1.30;;
65581;SDS011;52231;40.090;18.348;2023-04-26T02:48:34;4.07;;;1.52;;
65581;SDS011;52231;40.090;18.348;2023-04-26T02:51:03;7.90;;;1.80;;
65581;SDS011;52231;40.090;18.348;2023-04-26T02:53:31;6.70;;;1.55;;
65581;SDS011;52231;40.090;18.348;2023-04-26T02:56:00;6.60;;;1.80;;
65581;SDS011;52231;40.090;18.348;2023-04-26T02:58:28;5.93;;;1.40;;
65581;SDS011;52231;40.090;18.348;2023-04-26T03:00:57;6.03;;;1.50;;
65581;SDS011;52231;40.090;18.348;2023-04-26T03:03:27;4.28;;;1.48;;
65581;SDS011;52231;40.090;18.348;2023-04-26T03:08:24;5.63;;;1.60;;
65581;SDS011;52231;40.090;18.348;2023-04-26T03:10:52;6.15;;;1.60;;
65581;SDS011;52231;40.090;18.348;2023-04-26T03:13:23;4.07;;;1.73;;
65581;SDS011;52231;40.090;18.348;2023-04-26T03:15:54;6.20;;;1.48;;
65581;SDS011;52231;40.090;18.348;2023-04-26T03:18:22;4.53;;;1.40;;
65581;SDS011;52231;40.090;18.348;2023-04-26T03:20:51;2.90;;;1.08;;
65581;SDS011;52231;40.090;18.348;2023-04-26T03:23:19;8.13;;;1.60;;
65581;SDS011;52231;40.090;18.348;2023-04-26T03:25:52;7.07;;;1.45;;
65581;SDS011;52231;40.090;18.348;2023-04-26T03:28:20;6.35;;;1.80;;
65581;SDS011;52231;40.090;18.348;2023-04-26T03:30:48;4.45;;;1.52;;
65581;SDS011;52231;40.090;18.348;2023-04-26T03:35:45;6.78;;;1.52;;
65581;SDS011;52231;40.090;18.348;2023-04-26T03:40:41;4.22;;;1.40;;
65581;SDS011;52231;40.090;18.348;2023-04-26T03:43:10;6.82;;;1.58;;
65581;SDS011;52231;40.090;18.348;2023-04-26T03:45:38;5.63;;;1.70;;
65581;SDS011;52231;40.090;18.348;2023-04-26T03:48:06;4.88;;;1.75;;
65581;SDS011;52231;40.090;18.348;2023-04-26T03:50:35;5.13;;;1.42;;
65581;SDS011;52231;40.090;18.348;2023-04-26T03:53:04;8.45;;;1.58;;
65581;SDS011;52231;40.090;18.348;2023-04-26T03:55:33;5.07;;;1.58;;
65581;SDS011;52231;40.090;18.348;2023-04-26T03:58:01;6.47;;;1.70;;
65581;SDS011;52231;40.090;18.348;2023-04-26T04:00:37;4.88;;;1.52;;
65581;SDS011;52231;40.090;18.348;2023-04-26T04:03:06;6.05;;;1.45;;
65581;SDS011;52231;40.090;18.348;2023-04-26T04:05:34;5.50;;;1.60;;
65581;SDS011;52231;40.090;18.348;2023-04-26T04:08:03;8.93;;;1.88;;
65581;SDS011;52231;40.090;18.348;2023-04-26T04:10:31;5.35;;;1.52;;
65581;SDS011;52231;40.090;18.348;2023-04-26T04:12:59;7.82;;;1.80;;
65581;SDS011;52231;40.090;18.348;2023-04-26T04:15:29;8.65;;;1.83;;
65581;SDS011;52231;40.090;18.348;2023-04-26T04:17:57;7.93;;;2.20;;
65581;SDS011;52231;40.090;18.348;2023-04-26T04:20:25;11.55;;;2.10;;
65581;SDS011;52231;40.090;18.348;2023-04-26T04:22:55;7.15;;;2.00;;
65581;SDS011;52231;40.090;18.348;2023-04-26T04:25:28;8.88;;;2.03;;
65581;SDS011;52231;40.090;18.348;2023-04-26T04:28:00;6.88;;;2.17;;
65581;SDS011;52231;40.090;18.348;2023-04-26T04:30:30;7.15;;;1.80;;
65581;SDS011;52231;40.090;18.348;2023-04-26T04:32:59;6.75;;;1.75;;
65581;SDS011;52231;40.090;18.348;2023-04-26T04:35:29;8.32;;;1.70;;
65581;SDS011;52231;40.090;18.348;2023-04-26T04:38:03;5.78;;;1.75;;
65581;SDS011;52231;40.090;18.348;2023-04-26T04:40:32;5.22;;;1.40;;
65581;SDS011;52231;40.090;18.348;2023-04-26T04:43:00;4.03;;;1.70;;
65581;SDS011;52231;40.090;18.348;2023-04-26T04:45:30;5.43;;;1.65;;
65581;SDS011;52231;40.090;18.348;2023-04-26T04:48:00;7.05;;;1.67;;
65581;SDS011;52231;40.090;18.348;2023-04-26T04:50:28;6.80;;;1.48;;
65581;SDS011;52231;40.090;18.348;2023-04-26T04:52:58;4.75;;;1.80;;
65581;SDS011;52231;40.090;18.348;2023-04-26T04:55:27;5.55;;;1.65;;
65581;SDS011;52231;40.090;18.348;2023-04-26T04:57:56;6.47;;;1.50;;
65581;SDS011;52231;40.090;18.348;2023-04-26T05:00:25;6.20;;;1.40;;
65581;SDS011;52231;40.090;18.348;2023-04-26T05:03:02;5.78;;;1.35;;
65581;SDS011;52231;40.090;18.348;2023-04-26T05:05:31;5.45;;;1.60;;
65581;SDS011;52231;40.090;18.348;2023-04-26T05:10:28;8.38;;;1.60;;
65581;SDS011;52231;40.090;18.348;2023-04-26T05:12:56;4.93;;;1.50;;
65581;SDS011;52231;40.090;18.348;2023-04-26T05:17:53;6.57;;;1.63;;
65581;SDS011;52231;40.090;18.348;2023-04-26T05:20:23;5.60;;;1.27;;
65581;SDS011;52231;40.090;18.348;2023-04-26T05:22:52;6.07;;;1.33;;
65581;SDS011;52231;40.090;18.348;2023-04-26T05:25:21;5.28;;;1.50;;
65581;SDS011;52231;40.090;18.348;2023-04-26T05:27:58;5.07;;;1.75;;
65581;SDS011;52231;40.090;18.348;2023-04-26T05:30:40;7.75;;;1.50;;
65581;SDS011;52231;40.090;18.348;2023-04-26T05:33:18;5.47;;;1.50;;
65581;SDS011;52231;40.090;18.348;2023-04-26T05:35:55;9.45;;;4.03;;
65581;SDS011;52231;40.090;18.348;2023-04-26T05:38:24;5.20;;;1.95;;
65581;SDS011;52231;40.090;18.348;2023-04-26T05:40:53;5.75;;;1.55;;
65581;SDS011;52231;40.090;18.348;2023-04-26T05:43:21;5.95;;;1.58;;
65581;SDS011;52231;40.090;18.348;2023-04-26T05:45:51;5.00;;;1.30;;
65581;SDS011;52231;40.090;18.348;2023-04-26T05:48:21;5.30;;;1.35;;
65581;SDS011;52231;40.090;18.348;2023-04-26T05:50:50;4.32;;;1.40;;
65581;SDS011;52231;40.090;18.348;2023-04-26T05:55:46;7.13;;;1.70;;
65581;SDS011;52231;40.090;18.348;2023-04-26T05:58:15;4.80;;;1.48;;
65581;SDS011;52231;40.090;18.348;2023-04-26T06:00:44;8.55;;;1.67;;
65581;SDS011;52231;40.090;18.348;2023-04-26T06:03:13;3.53;;;1.40;;
65581;SDS011;52231;40.090;18.348;2023-04-26T06:05:42;3.67;;;1.30;;
65581;SDS011;52231;40.090;18.348;2023-04-26T06:08:10;2.88;;;1.35;;
65581;SDS011;52231;40.090;18.348;2023-04-26T06:10:39;5.53;;;1.42;;
65581;SDS011;52231;40.090;18.348;2023-04-26T06:15:37;6.93;;;1.45;;
65581;SDS011;52231;40.090;18.348;2023-04-26T06:20:33;4.80;;;1.30;;
65581;SDS011;52231;40.090;18.348;2023-04-26T06:23:05;6.90;;;1.40;;
65581;SDS011;52231;40.090;18.348;2023-04-26T06:25:34;4.45;;;1.13;;
65581;SDS011;52231;40.090;18.348;2023-04-26T06:28:03;6.90;;;1.13;;
65581;SDS011;52231;40.090;18.348;2023-04-26T06:30:31;2.90;;;1.02;;
65581;SDS011;52231;40.090;18.348;2023-04-26T06:33:00;4.05;;;1.38;;
65581;SDS011;52231;40.090;18.348;2023-04-26T06:35:30;5.50;;;1.30;;
65581;SDS011;52231;40.090;18.348;2023-04-26T06:37:58;7.35;;;1.73;;
65581;SDS011;52231;40.090;18.348;2023-04-26T06:40:27;4.03;;;1.30;;
65581;SDS011;52231;40.090;18.348;2023-04-26T06:42:55;5.07;;;1.30;;
65581;SDS011;52231;40.090;18.348;2023-04-26T06:45:36;6.10;;;1.40;;
65581;SDS011;52231;40.090;18.348;2023-04-26T06:48:05;5.65;;;1.30;;
65581;SDS011;52231;40.090;18.348;2023-04-26T06:50:37;6.55;;;2.55;;
65581;SDS011;52231;40.090;18.348;2023-04-26T06:53:07;4.53;;;1.30;;
65581;SDS011;52231;40.090;18.348;2023-04-26T06:55:38;4.47;;;1.27;;
65581;SDS011;52231;40.090;18.348;2023-04-26T06:58:11;5.38;;;1.13;;
65581;SDS011;52231;40.090;18.348;2023-04-26T07:00:40;3.25;;;0.90;;
65581;SDS011;52231;40.090;18.348;2023-04-26T07:03:08;3.65;;;1.10;;
65581;SDS011;52231;40.090;18.348;2023-04-26T07:05:37;3.17;;;1.38;;
65581;SDS011;52231;40.090;18.348;2023-04-26T07:08:07;4.68;;;0.98;;
65581;SDS011;52231;40.090;18.348;2023-04-26T07:13:03;3.83;;;1.20;;
65581;SDS011;52231;40.090;18.348;2023-04-26T07:15:32;3.50;;;1.00;;
65581;SDS011;52231;40.090;18.348;2023-04-26T07:18:03;5.55;;;1.10;;
65581;SDS011;52231;40.090;18.348;2023-04-26T07:20:31;5.50;;;1.20;;
65581;SDS011;52231;40.090;18.348;2023-04-26T07:22:59;3.58;;;1.10;;
65581;SDS011;52231;40.090;18.348;2023-04-26T07:25:27;3.38;;;1.25;;
65581;SDS011;52231;40.090;18.348;2023-04-26T07:27:55;5.43;;;1.30;;
65581;SDS011;52231;40.090;18.348;2023-04-26T07:30:24;7.95;;;1.10;;
65581;SDS011;52231;40.090;18.348;2023-04-26T07:32:52;2.78;;;0.93;;
65581;SDS011;52231;40.090;18.348;2023-04-26T07:35:20;4.13;;;1.45;;
65581;SDS011;52231;40.090;18.348;2023-04-26T07:40:17;3.58;;;1.20;;
65581;SDS011;52231;40.090;18.348;2023-04-26T07:42:46;2.25;;;1.08;;
65581;SDS011;52231;40.090;18.348;2023-04-26T07:45:14;3.97;;;1.33;;
65581;SDS011;52231;40.090;18.348;2023-04-26T07:47:43;6.93;;;1.30;;
65581;SDS011;52231;40.090;18.348;2023-04-26T07:50:11;4.97;;;1.25;;
65581;SDS011;52231;40.090;18.348;2023-04-26T07:52:40;5.90;;;1.30;;
65581;SDS011;52231;40.090;18.348;2023-04-26T07:55:10;3.38;;;1.10;;
65581;SDS011;52231;40.090;18.348;2023-04-26T07:57:38;6.55;;;1.08;;
65581;SDS011;52231;40.090;18.348;2023-04-26T08:00:06;2.70;;;1.40;;
65581;SDS011;52231;40.090;18.348;2023-04-26T08:02:38;5.68;;;1.30;;
65581;SDS011;52231;40.090;18.348;2023-04-26T08:05:10;5.03;;;1.10;;
65581;SDS011;52231;40.090;18.348;2023-04-26T08:07:39;4.97;;;1.55;;
65581;SDS011;52231;40.090;18.348;2023-04-26T08:10:08;4.22;;;1.13;;
65581;SDS011;52231;40.090;18.348;2023-04-26T08:12:37;7.63;;;0.98;;
65581;SDS011;52231;40.090;18.348;2023-04-26T08:15:05;4.28;;;1.00;;
65581;SDS011;52231;40.090;18.348;2023-04-26T08:17:34;5.43;;;1.30;;
65581;SDS011;52231;40.090;18.348;2023-04-26T08:20:03;5.05;;;1.30;;
65581;SDS011;52231;40.090;18.348;2023-04-26T08:22:32;5.97;;;1.23;;
65581;SDS011;52231;40.090;18.348;2023-04-26T08:27:29;6.07;;;1.20;;
65581;SDS011;52231;40.090;18.348;2023-04-26T08:29:58;3.72;;;1.00;;
65581;SDS011;52231;40.090;18.348;2023-04-26T08:32:26;4.00;;;1.15;;
65581;SDS011;52231;40.090;18.348;2023-04-26T08:37:22;2.65;;;0.90;;
65581;SDS011;52231;40.090;18.348;2023-04-26T08:39:51;4.68;;;1.38;;
65581;SDS011;52231;40.090;18.348;2023-04-26T08:42:19;6.10;;;1.25;;
65581;SDS011;52231;40.090;18.348;2023-04-26T08:44:51;5.15;;;1.10;;
65581;SDS011;52231;40.090;18.348;2023-04-26T08:49:58;4.05;;;1.10;;
65581;SDS011;52231;40.090;18.348;2023-04-26T08:52:30;3.83;;;1.00;;
65581;SDS011;52231;40.090;18.348;2023-04-26T08:54:59;3.42;;;1.05;;
65581;SDS011;52231;40.090;18.348;2023-04-26T08:57:27;5.10;;;1.10;;
65581;SDS011;52231;40.090;18.348;2023-04-26T09:00:02;4.75;;;1.20;;
65581;SDS011;52231;40.090;18.348;2023-04-26T09:02:50;4.20;;;1.20;;
65581;SDS011;52231;40.090;18.348;2023-04-26T09:05:19;4.68;;;1.10;;
65581;SDS011;52231;40.090;18.348;2023-04-26T09:07:51;11.52;;;1.50;;
65581;SDS011;52231;40.090;18.348;2023-04-26T09:10:27;5.70;;;1.40;;
65581;SDS011;52231;40.090;18.348;2023-04-26T09:12:57;4.35;;;1.13;;
65581;SDS011;52231;40.090;18.348;2023-04-26T09:15:26;6.90;;;1.73;;
65581;SDS011;52231;40.090;18.348;2023-04-26T09:17:54;7.88;;;2.03;;
65581;SDS011;52231;40.090;18.348;2023-04-26T09:20:26;6.78;;;1.55;;
65581;SDS011;52231;40.090;18.348;2023-04-26T09:23:06;9.43;;;1.60;;
65581;SDS011;52231;40.090;18.348;2023-04-26T09:25:36;6.45;;;1.33;;
65581;SDS011;52231;40.090;18.348;2023-04-26T09:28:17;6.53;;;2.03;;
65581;SDS011;52231;40.090;18.348;2023-04-26T09:30:49;7.47;;;1.80;;
65581;SDS011;52231;40.090;18.348;2023-04-26T09:33:21;6.75;;;1.55;;
65581;SDS011;52231;40.090;18.348;2023-04-26T09:35:49;6.10;;;1.75;;
65581;SDS011;52231;40.090;18.348;2023-04-26T09:38:17;3.00;;;1.20;;
65581;SDS011;52231;40.090;18.348;2023-04-26T09:40:47;6.88;;;1.50;;
65581;SDS011;52231;40.090;18.348;2023-04-26T09:48:21;7.07;;;1.75;;
65581;SDS011;52231;40.090;18.348;2023-04-26T09:50:57;4.45;;;1.10;;
65581;SDS011;52231;40.090;18.348;2023-04-26T09:53:35;5.50;;;1.10;;
65581;SDS011;52231;40.090;18.348;2023-04-26T10:01:14;4.88;;;1.23;;
65581;SDS011;52231;40.090;18.348;2023-04-26T10:03:44;4.50;;;1.00;;
65581;SDS011;52231;40.090;18.348;2023-04-26T10:06:13;3.67;;;1.15;;
65581;SDS011;52231;40.090;18.348;2023-04-26T10:08:43;2.47;;;0.93;;
65581;SDS011;52231;40.090;18.348;2023-04-26T10:11:11;2.00;;;0.90;;
65581;SDS011;52231;40.090;18.348;2023-04-26T10:13:40;3.72;;;1.05;;
65581;SDS011;52231;40.090;18.348;2023-04-26T10:16:09;3.85;;;0.80;;
65581;SDS011;52231;40.090;18.348;2023-04-26T10:18:38;3.95;;;1.00;;
65581;SDS011;52231;40.090;18.348;2023-04-26T10:23:39;3.05;;;0.98;;
65581;SDS011;52231;40.090;18.348;2023-04-26T10:26:45;4.13;;;0.90;;
65581;SDS011;52231;40.090;18.348;2023-04-26T10:29:16;4.20;;;1.40;;
65581;SDS011;52231;40.090;18.348;2023-04-26T10:34:29;3.72;;;1.25;;
65581;SDS011;52231;40.090;18.348;2023-04-26T10:39:40;1.92;;;0.90;;
65581;SDS011;52231;40.090;18.348;2023-04-26T10:42:17;1.27;;;1.10;;
65581;SDS011;52231;40.090;18.348;2023-04-26T10:44:51;3.35;;;1.38;;
65581;SDS011;52231;40.090;18.348;2023-04-26T10:50:06;2.13;;;1.15;;
65581;SDS011;52231;40.090;18.348;2023-04-26T10:52:37;4.43;;;1.17;;
65581;SDS011;52231;40.090;18.348;2023-04-26T10:55:39;2.72;;;0.88;;
65581;SDS011;52231;40.090;18.348;2023-04-26T10:58:27;2.10;;;0.90;;
65581;SDS011;52231;40.090;18.348;2023-04-26T11:06:53;2.03;;;0.75;;
65581;SDS011;52231;40.090;18.348;2023-04-26T11:09:36;5.95;;;1.05;;
65581;SDS011;52231;40.090;18.348;2023-04-26T11:12:09;3.10;;;1.30;;
65581;SDS011;52231;40.090;18.348;2023-04-26T11:14:43;4.47;;;1.27;;
65581;SDS011;52231;40.090;18.348;2023-04-26T11:17:15;6.63;;;0.93;;
65581;SDS011;52231;40.090;18.348;2023-04-26T11:19:45;2.25;;;0.75;;
65581;SDS011;52231;40.090;18.348;2023-04-26T11:22:14;3.28;;;1.00;;
65581;SDS011;52231;40.090;18.348;2023-04-26T11:24:42;3.90;;;0.95;;
65581;SDS011;52231;40.090;18.348;2023-04-26T11:29:38;4.38;;;1.38;;
65581;SDS011;52231;40.090;18.348;2023-04-26T11:32:06;2.85;;;1.17;;
65581;SDS011;52231;40.090;18.348;2023-04-26T11:34:36;4.18;;;1.70;;
65581;SDS011;52231;40.090;18.348;2023-04-26T11:37:05;5.35;;;1.50;;
65581;SDS011;52231;40.090;18.348;2023-04-26T11:39:34;6.85;;;1.80;;
65581;SDS011;52231;40.090;18.348;2023-04-26T11:42:06;3.88;;;0.95;;
65581;SDS011;52231;40.090;18.348;2023-04-26T11:44:36;3.08;;;1.00;;
65581;SDS011;52231;40.090;18.348;2023-04-26T11:47:05;4.53;;;1.00;;
65581;SDS011;52231;40.090;18.348;2023-04-26T11:49:34;3.55;;;0.80;;
65581;SDS011;52231;40.090;18.348;2023-04-26T11:52:04;9.15;;;2.08;;
65581;SDS011;52231;40.090;18.348;2023-04-26T11:54:33;4.47;;;1.40;;
65581;SDS011;52231;40.090;18.348;2023-04-26T11:57:12;2.50;;;1.10;;
65581;SDS011;52231;40.090;18.348;2023-04-26T11:59:43;2.33;;;1.08;;
65581;SDS011;52231;40.090;18.348;2023-04-26T12:02:12;4.38;;;1.17;;
65581;SDS011;52231;40.090;18.348;2023-04-26T12:07:08;4.35;;;1.10;;
65581;SDS011;52231;40.090;18.348;2023-04-26T12:09:39;3.92;;;0.90;;
65581;SDS011;52231;40.090;18.348;2023-04-26T12:12:08;4.63;;;1.10;;
65581;SDS011;52231;40.090;18.348;2023-04-26T12:14:39;1.52;;;0.93;;
65581;SDS011;52231;40.090;18.348;2023-04-26T12:17:08;4.82;;;1.08;;
65581;SDS011;52231;40.090;18.348;2023-04-26T12:19:37;4.47;;;1.20;;
65581;SDS011;52231;40.090;18.348;2023-04-26T12:22:07;3.80;;;1.20;;
65581;SDS011;52231;40.090;18.348;2023-04-26T12:24:36;4.53;;;0.90;;
65581;SDS011;52231;40.090;18.348;2023-04-26T12:27:05;5.35;;;1.20;;
65581;SDS011;52231;40.090;18.348;2023-04-26T12:29:34;1.38;;;0.85;;
65581;SDS011;52231;40.090;18.348;2023-04-26T12:32:02;5.78;;;0.70;;
65581;SDS011;52231;40.090;18.348;2023-04-26T12:34:30;4.25;;;1.00;;
65581;SDS011;52231;40.090;18.348;2023-04-26T12:39:26;3.33;;;1.00;;
65581;SDS011;52231;40.090;18.348;2023-04-26T12:44:23;2.45;;;0.85;;
65581;SDS011;52231;40.090;18.348;2023-04-26T12:46:52;3.15;;;0.90;;
65581;SDS011;52231;40.090;18.348;2023-04-26T12:49:20;2.85;;;1.00;;
65581;SDS011;52231;40.090;18.348;2023-04-26T12:51:49;1.73;;;1.20;;
65581;SDS011;52231;40.090;18.348;2023-04-26T12:54:17;2.67;;;0.98;;
65581;SDS011;52231;40.090;18.348;2023-04-26T12:56:48;4.35;;;0.98;;
65581;SDS011;52231;40.090;18.348;2023-04-26T12:59:17;1.65;;;0.80;;
65581;SDS011;52231;40.090;18.348;2023-04-26T13:01:45;1.35;;;0.77;;
65581;SDS011;52231;40.090;18.348;2023-04-26T13:04:14;4.55;;;1.02;;
65581;SDS011;52231;40.090;18.348;2023-04-26T13:06:42;2.13;;;0.80;;
65581;SDS011;52231;40.090;18.348;2023-04-26T13:09:10;3.28;;;1.30;;
65581;SDS011;52231;40.090;18.348;2023-04-26T13:11:40;3.35;;;0.90;;
65581;SDS011;52231;40.090;18.348;2023-04-26T13:14:10;2.20;;;0.82;;
65581;SDS011;52231;40.090;18.348;2023-04-26T13:16:38;1.35;;;1.10;;
65581;SDS011;52231;40.090;18.348;2023-04-26T13:19:10;2.63;;;1.40;;
65581;SDS011;52231;40.090;18.348;2023-04-26T13:24:07;1.58;;;0.85;;
65581;SDS011;52231;40.090;18.348;2023-04-26T13:26:35;1.10;;;1.00;;
65581;SDS011;52231;40.090;18.348;2023-04-26T13:29:03;1.40;;;0.60;;
65581;SDS011;52231;40.090;18.348;2023-04-26T13:31:32;2.47;;;0.70;;
65581;SDS011;52231;40.090;18.348;2023-04-26T13:34:01;1.15;;;0.80;;
65581;SDS011;52231;40.090;18.348;2023-04-26T13:36:30;3.03;;;0.90;;
65581;SDS011;52231;40.090;18.348;2023-04-26T13:38:59;0.70;;;0.70;;
65581;SDS011;52231;40.090;18.348;2023-04-26T13:44:02;3.47;;;0.90;;
65581;SDS011;52231;40.090;18.348;2023-04-26T13:46:31;1.67;;;1.02;;
65581;SDS011;52231;40.090;18.348;2023-04-26T13:48:59;2.58;;;1.15;;
65581;SDS011;52231;40.090;18.348;2023-04-26T13:53:57;1.88;;;1.10;;
65581;SDS011;52231;40.090;18.348;2023-04-26T13:56:25;3.33;;;1.10;;
65581;SDS011;52231;40.090;18.348;2023-04-26T13:58:54;2.55;;;0.93;;
65581;SDS011;52231;40.090;18.348;2023-04-26T14:01:27;2.85;;;1.20;;
65581;SDS011;52231;40.090;18.348;2023-04-26T14:03:56;4.80;;;1.20;;
65581;SDS011;52231;40.090;18.348;2023-04-26T14:06:28;1.52;;;1.13;;
65581;SDS011;52231;40.090;18.348;2023-04-26T14:08:59;3.22;;;1.23;;
65581;SDS011;52231;40.090;18.348;2023-04-26T14:11:27;1.40;;;0.90;;
65581;SDS011;52231;40.090;18.348;2023-04-26T14:13:57;4.45;;;0.88;;
65581;SDS011;52231;40.090;18.348;2023-04-26T14:16:26;3.60;;;0.90;;
65581;SDS011;52231;40.090;18.348;2023-04-26T14:21:22;2.22;;;1.35;;
65581;SDS011;52231;40.090;18.348;2023-04-26T14:23:51;4.35;;;1.23;;
65581;SDS011;52231;40.090;18.348;2023-04-26T14:26:19;5.13;;;1.17;;
65581;SDS011;52231;40.090;18.348;2023-04-26T14:28:47;1.52;;;1.02;;
65581;SDS011;52231;40.090;18.348;2023-04-26T14:33:44;2.95;;;1.10;;
65581;SDS011;52231;40.090;18.348;2023-04-26T14:36:12;2.30;;;0.88;;
65581;SDS011;52231;40.090;18.348;2023-04-26T14:38:41;4.05;;;1.17;;
65581;SDS011;52231;40.090;18.348;2023-04-26T14:41:18;3.03;;;1.15;;
65581;SDS011;52231;40.090;18.348;2023-04-26T14:43:46;7.15;;;1.70;;
65581;SDS011;52231;40.090;18.348;2023-04-26T14:48:43;1.67;;;1.00;;
65581;SDS011;52231;40.090;18.348;2023-04-26T14:53:39;4.60;;;1.20;;
65581;SDS011;52231;40.090;18.348;2023-04-26T14:56:07;4.95;;;1.40;;
65581;SDS011;52231;40.090;18.348;2023-04-26T15:01:03;4.60;;;1.20;;
65581;SDS011;52231;40.090;18.348;2023-04-26T15:03:31;3.72;;;1.23;;
65581;SDS011;52231;40.090;18.348;2023-04-26T15:08:31;6.80;;;1.42;;
65581;SDS011;52231;40.090;18.348;2023-04-26T15:10:59;3.47;;;1.42;;
65581;SDS011;52231;40.090;18.348;2023-04-26T15:13:27;3.83;;;1.20;;
65581;SDS011;52231;40.090;18.348;2023-04-26T15:15:55;2.97;;;1.08;;
65581;SDS011;52231;40.090;18.348;2023-04-26T15:18:23;1.80;;;0.90;;
65581;SDS011;52231;40.090;18.348;2023-04-26T15:20:51;4.05;;;0.98;;
65581;SDS011;52231;40.090;18.348;2023-04-26T15:23:20;1.83;;;1.05;;
65581;SDS011;52231;40.090;18.348;2023-04-26T15:25:48;2.95;;;0.98;;
65581;SDS011;52231;40.090;18.348;2023-04-26T15:28:16;3.08;;;1.33;;
65581;SDS011;52231;40.090;18.348;2023-04-26T15:30:44;2.05;;;0.98;;
65581;SDS011;52231;40.090;18.348;2023-04-26T15:33:12;3.63;;;1.00;;
65581;SDS011;52231;40.090;18.348;2023-04-26T15:35:43;4.22;;;1.30;;
65581;SDS011;52231;40.090;18.348;2023-04-26T15:38:11;3.30;;;1.00;;
65581;SDS011;52231;40.090;18.348;2023-04-26T15:40:39;5.38;;;1.08;;
65581;SDS011;52231;40.090;18.348;2023-04-26T15:43:07;3.10;;;1.20;;
65581;SDS011;52231;40.090;18.348;2023-04-26T15:45:35;4.15;;;1.20;;
65581;SDS011;52231;40.090;18.348;2023-04-26T15:48:04;4.63;;;1.20;;
65581;SDS011;52231;40.090;18.348;2023-04-26T15:50:32;7.40;;;1.85;;
65581;SDS011;52231;40.090;18.348;2023-04-26T15:53:00;2.22;;;0.98;;
65581;SDS011;52231;40.090;18.348;2023-04-26T15:55:31;2.70;;;1.23;;
65581;SDS011;52231;40.090;18.348;2023-04-26T15:57:59;3.40;;;1.20;;
65581;SDS011;52231;40.090;18.348;2023-04-26T16:00:28;3.53;;;1.40;;
65581;SDS011;52231;40.090;18.348;2023-04-26T16:02:57;5.40;;;1.23;;
65581;SDS011;52231;40.090;18.348;2023-04-26T16:05:25;4.13;;;1.10;;
65581;SDS011;52231;40.090;18.348;2023-04-26T16:07:54;3.13;;;1.20;;
65581;SDS011;52231;40.090;18.348;2023-04-26T16:10:22;5.63;;;1.88;;
65581;SDS011;52231;40.090;18.348;2023-04-26T16:12:51;4.78;;;1.50;;
65581;SDS011;52231;40.090;18.348;2023-04-26T16:15:19;3.83;;;1.30;;
65581;SDS011;52231;40.090;18.348;2023-04-26T16:17:47;5.43;;;1.30;;
65581;SDS011;52231;40.090;18.348;2023-04-26T16:20:15;5.32;;;1.50;;
65581;SDS011;52231;40.090;18.348;2023-04-26T16:22:43;4.32;;;1.92;;
65581;SDS011;52231;40.090;18.348;2023-04-26T16:25:11;6.20;;;1.35;;
65581;SDS011;52231;40.090;18.348;2023-04-26T16:27:39;4.95;;;1.40;;
65581;SDS011;52231;40.090;18.348;2023-04-26T16:30:07;5.20;;;1.60;;